createdAt,value
2017-08-12T00:00:36.248Z,65.69
2017-08-12T00:01:46.610Z,65.59
2017-08-12T00:02:57.024Z,65.66
2017-08-12T00:04:07.376Z,65.69
2017-08-12T00:05:17.412Z,65.37
2017-08-12T00:06:27.775Z,65.37
2017-08-12T00:07:37.816Z,65.56
2017-08-12T00:08:48.214Z,65.84
2017-08-12T00:09:58.572Z,65.66
2017-08-12T00:11:08.939Z,65.66
2017-08-12T00:12:19.282Z,65.66
2017-08-12T00:13:29.649Z,66.04
2017-08-12T00:14:40.034Z,65.56
2017-08-12T00:15:50.419Z,65.66
2017-08-12T00:17:00.759Z,65.56
2017-08-12T00:18:10.792Z,65.94
2017-08-12T00:19:21.141Z,65.56
2017-08-12T00:20:31.549Z,65.56
2017-08-12T00:21:41.601Z,65.94
2017-08-12T00:22:51.948Z,65.66
2017-08-12T00:24:01.990Z,65.75
2017-08-12T00:25:12.331Z,65.75
2017-08-12T00:26:22.724Z,65.66
2017-08-12T00:27:33.072Z,65.56
2017-08-12T00:28:43.117Z,65.56
2017-08-12T00:29:53.167Z,65.66
2017-08-12T00:31:03.512Z,65.56
2017-08-12T00:32:13.906Z,65.84
2017-08-12T00:33:23.944Z,65.66
2017-08-12T00:34:34.298Z,65.66
2017-08-12T00:35:44.343Z,65.84
2017-08-12T00:36:54.683Z,65.84
2017-08-12T00:38:05.092Z,65.75
2017-08-12T00:39:15.455Z,65.94
2017-08-12T00:40:25.845Z,65.84
2017-08-12T00:41:35.875Z,65.75
2017-08-12T00:42:46.224Z,65.56
2017-08-12T00:43:56.636Z,65.94
2017-08-12T00:45:06.990Z,66.14
2017-08-12T00:46:17.016Z,65.66
2017-08-12T00:47:27.375Z,65.46
2017-08-12T00:48:37.435Z,65.37
2017-08-12T00:49:47.831Z,65.66
2017-08-12T00:50:57.559Z,65.66
2017-08-12T00:52:07.909Z,65.66
2017-08-12T00:53:18.241Z,65.84
2017-08-12T00:54:28.606Z,65.75
2017-08-12T00:55:39.014Z,65.84
2017-08-12T00:56:49.361Z,66.04
2017-08-12T00:57:59.708Z,65.53
2017-08-12T00:59:10.048Z,65.81
2017-08-12T01:00:20.409Z,65.81
2017-08-12T01:01:31.598Z,65.91
2017-08-12T01:02:41.963Z,65.81
2017-08-12T01:03:52.331Z,65.91
2017-08-12T01:05:02.678Z,65.91
2017-08-12T01:06:12.728Z,65.81
2017-08-12T01:07:22.816Z,65.81
2017-08-12T01:08:33.167Z,65.81
2017-08-12T01:09:42.898Z,65.72
2017-08-12T01:10:52.970Z,65.72
2017-08-12T01:12:03.323Z,66
2017-08-12T01:13:13.425Z,65.91
2017-08-12T01:14:23.770Z,65.81
2017-08-12T01:15:34.119Z,65.62
2017-08-12T01:16:44.485Z,65.62
2017-08-12T01:17:54.835Z,65.62
2017-08-12T01:19:05.238Z,65.91
2017-08-12T01:20:15.583Z,65.91
2017-08-12T01:21:25.950Z,65.78
2017-08-12T01:22:36.299Z,65.62
2017-08-12T01:23:46.325Z,65.72
2017-08-12T01:24:56.439Z,65.59
2017-08-12T01:26:06.778Z,65.78
2017-08-12T01:27:17.118Z,66
2017-08-12T01:28:27.168Z,65.53
2017-08-12T01:29:37.524Z,65.3
2017-08-12T01:30:47.948Z,65.43
2017-08-12T01:31:58.300Z,65.62
2017-08-12T01:33:08.332Z,65.53
2017-08-12T01:34:18.692Z,65.43
2017-08-12T01:35:29.041Z,65.62
2017-08-12T01:36:39.133Z,65.62
2017-08-12T01:37:49.503Z,65.43
2017-08-12T01:38:59.856Z,65.49
2017-08-12T01:40:09.885Z,65.49
2017-08-12T01:41:19.924Z,65.3
2017-08-12T01:42:30.736Z,65.49
2017-08-12T01:43:41.086Z,65.49
2017-08-12T01:44:51.446Z,65.49
2017-08-12T01:46:01.484Z,65.49
2017-08-12T01:47:11.524Z,65.3
2017-08-12T01:48:21.936Z,65.78
2017-08-12T01:49:31.967Z,65.69
2017-08-12T01:50:42.324Z,65.49
2017-08-12T01:51:52.682Z,65.3
2017-08-12T01:53:02.719Z,65.2
2017-08-12T01:54:13.118Z,65.4
2017-08-12T01:55:23.450Z,65.3
2017-08-12T01:56:33.493Z,65.4
2017-08-12T01:57:43.528Z,65.3
2017-08-12T01:58:53.890Z,65.59
2017-08-12T02:00:04.295Z,65.49
2017-08-12T02:01:14.639Z,65.3
2017-08-12T02:02:24.690Z,65.49
2017-08-12T02:03:35.050Z,65.49
2017-08-12T02:04:45.081Z,65.59
2017-08-12T02:05:55.480Z,65.69
2017-08-12T02:07:05.508Z,65.59
2017-08-12T02:08:15.868Z,65.59
2017-08-12T02:09:26.255Z,65.59
2017-08-12T02:10:36.004Z,65.69
2017-08-12T02:11:46.090Z,65.78
2017-08-12T02:12:56.454Z,65.78
2017-08-12T02:14:06.512Z,65.78
2017-08-12T02:15:16.866Z,65.59
2017-08-12T02:16:27.204Z,65.59
2017-08-12T02:17:37.304Z,65.78
2017-08-12T02:18:47.652Z,65.78
2017-08-12T02:19:58.000Z,65.78
2017-08-12T02:21:08.368Z,65.69
2017-08-12T02:22:18.713Z,65.78
2017-08-12T02:23:28.820Z,65.49
2017-08-12T02:24:39.190Z,65.59
2017-08-12T02:25:49.215Z,65.59
2017-08-12T02:26:58.625Z,65.49
2017-08-12T02:28:08.992Z,65.78
2017-08-12T02:29:19.379Z,65.78
2017-08-12T02:30:29.409Z,65.78
2017-08-12T02:31:39.461Z,65.78
2017-08-12T02:32:49.810Z,65.78
2017-08-12T02:34:00.169Z,65.78
2017-08-12T02:35:10.559Z,65.49
2017-08-12T02:36:20.620Z,65.88
2017-08-12T02:37:30.974Z,65.49
2017-08-12T02:38:41.027Z,65.78
2017-08-12T02:39:51.381Z,65.88
2017-08-12T02:41:01.142Z,65.78
2017-08-12T02:42:11.473Z,65.88
2017-08-12T02:43:21.820Z,65.59
2017-08-12T02:44:32.170Z,65.59
2017-08-12T02:45:42.505Z,65.78
2017-08-12T02:46:54.368Z,65.59
2017-08-12T02:48:04.405Z,65.69
2017-08-12T02:49:14.434Z,65.97
2017-08-12T02:50:24.474Z,65.78
2017-08-12T02:51:34.839Z,65.88
2017-08-12T02:52:44.615Z,65.78
2017-08-12T02:53:54.976Z,65.97
2017-08-12T02:55:05.349Z,65.88
2017-08-12T02:56:15.384Z,66.07
2017-08-12T02:57:25.734Z,65.59
2017-08-12T02:58:36.145Z,65.88
2017-08-12T02:59:46.500Z,65.69
2017-08-12T03:00:56.221Z,65.69
2017-08-12T03:02:06.569Z,65.78
2017-08-12T03:33:33.557Z,63.29
2017-08-12T03:34:43.898Z,63.86
2017-08-12T03:35:53.910Z,64.37
2017-08-12T03:37:03.949Z,64.63
2017-08-12T03:38:14.311Z,65.11
2017-08-12T03:39:24.393Z,65.23
2017-08-12T03:40:34.428Z,65.71
2017-08-12T03:41:44.152Z,66.09
2017-08-12T03:42:53.882Z,66.29
2017-08-12T03:44:04.244Z,66.42
2017-08-12T03:45:14.639Z,66.61
2017-08-12T03:46:25.011Z,66.51
2017-08-12T03:47:35.060Z,66.45
2017-08-12T03:48:45.098Z,66.55
2017-08-12T03:49:55.445Z,66.74
2017-08-12T03:51:05.848Z,66.35
2017-08-12T03:52:16.192Z,66.67
2017-08-12T03:53:26.542Z,66.29
2017-08-12T03:54:36.570Z,66.29
2017-08-12T03:55:46.614Z,66.49
2017-08-12T03:56:57.014Z,66.49
2017-08-12T03:58:09.047Z,66.61
2017-08-12T03:59:19.381Z,65.84
2017-08-12T04:00:29.431Z,66.23
2017-08-12T04:01:39.779Z,66.23
2017-08-12T04:02:50.176Z,66.61
2017-08-12T04:04:00.508Z,65.78
2017-08-12T04:05:10.848Z,65.69
2017-08-12T04:06:21.740Z,65.69
2017-08-12T04:07:32.071Z,65.49
2017-08-12T04:08:42.165Z,65.78
2017-08-12T04:09:51.876Z,65.3
2017-08-12T04:11:01.629Z,65.53
2017-08-12T04:12:11.653Z,65.62
2017-08-12T04:13:22.001Z,65.59
2017-08-12T04:14:32.659Z,65.72
2017-08-12T04:15:42.699Z,65.53
2017-08-12T04:16:52.126Z,65.81
2017-08-12T04:18:02.484Z,65.72
2017-08-12T04:19:12.843Z,65.91
2017-08-12T04:20:23.250Z,65.81
2017-08-12T04:21:33.606Z,66.04
2017-08-12T04:22:43.957Z,65.94
2017-08-12T04:23:55.954Z,65.75
2017-08-12T04:25:06.312Z,65.94
2017-08-12T04:26:16.704Z,65.75
2017-08-12T04:27:27.055Z,65.75
2017-08-12T04:28:37.417Z,65.46
2017-08-12T04:29:47.460Z,65.37
2017-08-12T04:30:58.550Z,65.2
2017-08-12T04:32:09.457Z,65.5
2017-08-12T04:33:19.827Z,65.69
2017-08-12T04:34:29.547Z,65.59
2017-08-12T04:35:39.880Z,65.5
2017-08-12T04:36:49.929Z,65.78
2017-08-12T04:38:00.319Z,65.88
2017-08-12T04:39:10.352Z,65.97
2017-08-12T04:40:20.380Z,65.69
2017-08-12T04:41:30.735Z,65.69
2017-08-12T04:42:41.089Z,65.72
2017-08-12T04:43:51.498Z,65.69
2017-08-12T04:45:01.851Z,65.81
2017-08-12T04:46:11.586Z,65.63
2017-08-12T04:47:21.936Z,65.53
2017-08-12T04:48:31.650Z,65.24
2017-08-12T04:49:42.058Z,65.56
2017-08-12T04:50:52.097Z,65.56
2017-08-12T04:52:02.444Z,64.69
2017-08-12T04:53:12.800Z,62.51
2017-08-12T04:54:23.163Z,60.61
2017-08-12T04:55:33.270Z,59.44
2017-08-12T04:56:43.638Z,59.11
2017-08-12T04:57:53.679Z,58.49
2017-08-12T04:59:03.734Z,58.04
2017-08-12T05:00:13.785Z,58.16
2017-08-12T05:01:23.885Z,58.67
2017-08-12T05:02:34.234Z,58.7
2017-08-12T05:03:44.269Z,58.7
2017-08-12T05:04:54.621Z,59.22
2017-08-12T05:06:04.975Z,59.25
2017-08-12T05:07:15.368Z,59.28
2017-08-12T05:08:25.728Z,59.76
2017-08-12T05:09:36.095Z,59.67
2017-08-12T05:10:46.463Z,59.79
2017-08-12T05:11:56.818Z,59.99
2017-08-12T05:13:07.228Z,59.79
2017-08-12T05:14:17.300Z,60.86
2017-08-12T05:15:27.336Z,60.6
2017-08-12T05:16:37.697Z,60.6
2017-08-12T05:17:48.066Z,60.5
2017-08-12T05:18:58.482Z,60.5
2017-08-12T05:20:08.854Z,61.28
2017-08-12T05:21:19.203Z,61.02
2017-08-12T05:22:29.565Z,60.82
2017-08-12T05:23:39.934Z,60.89
2017-08-12T05:24:50.327Z,60.92
2017-08-12T05:26:00.690Z,60.92
2017-08-12T05:27:11.059Z,61.02
2017-08-12T05:28:21.465Z,61.11
2017-08-12T05:29:31.816Z,60.92
2017-08-12T05:30:42.218Z,61.11
2017-08-12T05:31:52.247Z,60.92
2017-08-12T05:33:02.283Z,61.51
2017-08-12T05:34:11.997Z,61.11
2017-08-12T05:35:22.363Z,60.82
2017-08-12T05:36:32.779Z,61.6
2017-08-12T05:37:42.917Z,61.18
2017-08-12T05:38:53.325Z,61.28
2017-08-12T05:40:03.053Z,61.47
2017-08-12T05:41:13.408Z,61.57
2017-08-12T05:42:23.496Z,61.28
2017-08-12T05:43:33.531Z,61.18
2017-08-12T05:44:43.590Z,61.47
2017-08-12T05:45:53.956Z,61.67
2017-08-12T05:47:04.005Z,61.7
2017-08-12T05:48:14.406Z,61.02
2017-08-12T05:49:24.469Z,62.67
2017-08-12T05:50:34.808Z,63.29
2017-08-12T05:51:44.843Z,62.77
2017-08-12T05:52:55.183Z,62.61
2017-08-12T05:54:05.593Z,62.23
2017-08-12T05:55:15.637Z,63
2017-08-12T05:56:25.985Z,62.58
2017-08-12T05:57:36.346Z,61.64
2017-08-12T05:58:46.400Z,61.77
2017-08-12T05:59:56.794Z,62.16
2017-08-12T06:01:07.153Z,63.78
2017-08-12T06:02:17.489Z,64.4
2017-08-12T06:03:27.831Z,65.4
2017-08-12T06:04:38.193Z,65.17
2017-08-12T06:05:48.596Z,65.63
2017-08-12T06:06:58.654Z,65.72
2017-08-12T06:08:09.025Z,65.89
2017-08-12T06:09:19.371Z,65.5
2017-08-12T06:10:29.743Z,65.27
2017-08-12T06:11:40.154Z,65.37
2017-08-12T06:12:50.504Z,65.56
2017-08-12T06:14:00.872Z,65.34
2017-08-12T06:15:11.214Z,65.24
2017-08-12T06:16:21.269Z,64.66
2017-08-12T06:17:31.050Z,65.05
2017-08-12T06:18:41.415Z,65.05
2017-08-12T06:19:51.787Z,65.05
2017-08-12T06:21:02.125Z,65.01
2017-08-12T06:22:12.486Z,65.2
2017-08-12T06:23:22.883Z,64.62
2017-08-12T06:24:32.936Z,64.72
2017-08-12T06:25:42.982Z,64.34
2017-08-12T06:26:53.358Z,63.95
2017-08-12T06:28:03.712Z,63.89
2017-08-12T06:29:13.802Z,63.98
2017-08-12T06:30:24.173Z,63.11
2017-08-12T06:31:34.221Z,63.43
2017-08-12T06:32:44.581Z,62.75
2017-08-12T06:33:54.928Z,62.95
2017-08-12T06:35:05.350Z,63.17
2017-08-12T06:36:15.705Z,63.17
2017-08-12T06:37:26.059Z,62.79
2017-08-12T06:38:36.098Z,62.79
2017-08-12T06:39:46.442Z,62.98
2017-08-12T06:40:56.863Z,63.56
2017-08-12T06:42:06.906Z,63.07
2017-08-12T06:43:17.270Z,63.82
2017-08-12T06:44:27.623Z,63.72
2017-08-12T06:45:37.351Z,63.72
2017-08-12T06:46:47.754Z,63.82
2017-08-12T06:47:58.100Z,63.92
2017-08-12T06:49:08.452Z,63.82
2017-08-12T06:50:18.824Z,63.14
2017-08-12T06:51:29.182Z,63.24
2017-08-12T06:52:39.581Z,63.14
2017-08-12T06:53:49.619Z,63.82
2017-08-12T06:54:59.659Z,63.82
2017-08-12T06:56:10.027Z,62.95
2017-08-12T06:57:20.625Z,63.72
2017-08-12T06:58:30.736Z,63.14
2017-08-12T06:59:40.476Z,63.14
2017-08-12T07:00:50.856Z,63.14
2017-08-12T07:02:01.224Z,62.95
2017-08-12T07:03:11.573Z,63.62
2017-08-12T07:04:21.667Z,63.82
2017-08-12T07:05:32.026Z,63.82
2017-08-12T07:06:42.077Z,63.92
2017-08-12T07:07:51.807Z,64.01
2017-08-12T07:09:01.841Z,64.01
2017-08-12T07:10:12.302Z,64.11
2017-08-12T07:11:22.349Z,63.92
2017-08-12T07:12:32.706Z,63.82
2017-08-12T07:13:42.749Z,63.82
2017-08-12T07:14:53.122Z,63.62
2017-08-12T07:16:03.532Z,64.01
2017-08-12T07:17:13.578Z,64.01
2017-08-12T07:18:23.921Z,64.01
2017-08-12T07:19:34.286Z,64.01
2017-08-12T07:20:44.338Z,63.92
2017-08-12T07:21:54.760Z,63.89
2017-08-12T07:23:05.112Z,63.89
2017-08-12T07:24:15.448Z,63.98
2017-08-12T07:25:25.806Z,63.79
2017-08-12T07:26:35.558Z,63.98
2017-08-12T07:27:45.973Z,63.89
2017-08-12T07:28:56.010Z,63.79
2017-08-12T07:30:06.062Z,63.79
2017-08-12T07:31:16.413Z,63.98
2017-08-12T07:32:26.773Z,64.01
2017-08-12T07:33:37.190Z,64.11
2017-08-12T07:34:47.549Z,64.01
2017-08-12T07:35:57.587Z,63.92
2017-08-12T07:37:07.944Z,63.72
2017-08-12T07:38:18.299Z,63.92
2017-08-12T07:39:28.698Z,63.82
2017-08-12T07:40:39.577Z,63.92
2017-08-12T07:41:49.949Z,63.82
2017-08-12T07:43:00.014Z,63.82
2017-08-12T07:44:10.083Z,63.92
2017-08-12T07:45:20.485Z,64.01
2017-08-12T07:46:30.212Z,63.62
2017-08-12T07:47:40.278Z,63.65
2017-08-12T07:48:50.637Z,63.37
2017-08-12T07:50:01.000Z,62.59
2017-08-12T07:51:11.396Z,62.91
2017-08-12T07:52:21.439Z,62.62
2017-08-12T07:53:31.807Z,62.55
2017-08-12T07:54:42.166Z,62.62
2017-08-12T07:55:52.514Z,62.36
2017-08-12T07:57:02.932Z,62.46
2017-08-12T07:58:13.287Z,62.46
2017-08-12T07:59:23.633Z,62.75
2017-08-12T08:00:35.394Z,62.68
2017-08-12T08:01:45.753Z,63.04
2017-08-12T08:02:55.865Z,63.04
2017-08-12T08:04:06.212Z,62.75
2017-08-12T08:05:16.584Z,62.85
2017-08-12T08:06:26.956Z,63.53
2017-08-12T08:07:37.305Z,63.2
2017-08-12T08:08:47.396Z,63.1
2017-08-12T08:09:57.743Z,63.69
2017-08-12T08:11:07.781Z,63.88
2017-08-12T08:12:18.151Z,63.1
2017-08-12T08:13:28.524Z,63.49
2017-08-12T08:14:38.962Z,62.82
2017-08-12T08:15:49.008Z,63.59
2017-08-12T08:16:59.379Z,63.3
2017-08-12T08:18:09.428Z,63.3
2017-08-12T08:19:21.143Z,63.59
2017-08-12T08:20:31.234Z,63.2
2017-08-12T08:21:41.584Z,63.01
2017-08-12T08:22:51.947Z,62.82
2017-08-12T08:24:02.315Z,63.13
2017-08-12T08:25:12.675Z,62.95
2017-08-12T08:26:23.102Z,62.75
2017-08-12T08:27:33.149Z,62.88
2017-08-12T08:28:44.216Z,62.68
2017-08-12T08:29:54.566Z,62.65
2017-08-12T08:31:04.956Z,61.61
2017-08-12T08:32:15.070Z,61.29
2017-08-12T08:33:25.420Z,61.41
2017-08-12T08:34:35.790Z,61.51
2017-08-12T08:35:46.139Z,61.12
2017-08-12T08:36:56.202Z,61.51
2017-08-12T08:38:06.632Z,60.93
2017-08-12T08:39:16.997Z,61.35
2017-08-12T08:40:27.056Z,61.05
2017-08-12T08:41:37.459Z,61.28
2017-08-12T08:42:47.512Z,61.57
2017-08-12T08:43:57.917Z,61.93
2017-08-12T08:45:08.272Z,61.83
2017-08-12T08:46:18.638Z,61.64
2017-08-12T08:47:28.679Z,61.54
2017-08-12T08:48:39.069Z,61.74
2017-08-12T08:49:49.179Z,62.9
2017-08-12T08:50:59.534Z,62.23
2017-08-12T08:52:09.884Z,62.38
2017-08-12T08:53:20.233Z,62.58
2017-08-12T08:54:30.580Z,62.48
2017-08-12T08:55:40.984Z,62.74
2017-08-12T08:56:51.339Z,62.74
2017-08-12T08:58:01.697Z,62.84
2017-08-12T08:59:12.050Z,62.26
2017-08-12T09:00:22.442Z,62.1
2017-08-12T09:01:32.853Z,61.51
2017-08-12T09:02:43.216Z,61.51
2017-08-12T09:03:53.574Z,61.22
2017-08-12T09:05:03.618Z,60.96
2017-08-12T09:06:13.972Z,60.99
2017-08-12T09:07:24.373Z,60.34
2017-08-12T09:08:34.720Z,60.27
2017-08-12T09:09:45.083Z,60.1
2017-08-12T09:10:55.428Z,59.35
2017-08-12T09:12:05.788Z,59.09
2017-08-12T09:13:16.218Z,58.92
2017-08-12T09:14:26.572Z,58.73
2017-08-12T09:15:36.955Z,59.25
2017-08-12T09:16:47.004Z,59.61
2017-08-12T09:17:57.380Z,59.15
2017-08-12T09:19:07.802Z,58.5
2017-08-12T09:20:18.164Z,59.08
2017-08-12T09:21:28.530Z,60.22
2017-08-12T09:22:38.871Z,60
2017-08-12T09:23:48.941Z,59.34
2017-08-12T09:24:59.356Z,59.57
2017-08-12T09:26:09.416Z,59.67
2017-08-12T09:27:19.470Z,60.25
2017-08-12T09:28:29.842Z,60.81
2017-08-12T09:29:40.210Z,60.97
2017-08-12T09:30:50.010Z,60.88
2017-08-12T09:32:00.075Z,61.17
2017-08-12T09:33:10.136Z,61.14
2017-08-12T09:34:20.172Z,61.79
2017-08-12T09:35:30.541Z,61.73
2017-08-12T09:36:40.967Z,61.83
2017-08-12T09:37:50.697Z,62.6
2017-08-12T09:39:01.061Z,62.57
2017-08-12T09:40:11.130Z,62.38
2017-08-12T09:41:21.507Z,61.9
2017-08-12T09:42:31.949Z,61.6
2017-08-12T09:43:41.983Z,61.41
2017-08-12T09:44:52.029Z,61.6
2017-08-12T09:46:02.389Z,61.77
2017-08-12T09:47:12.742Z,61.67
2017-08-12T09:48:23.162Z,61.67
2017-08-12T09:49:33.223Z,61.7
2017-08-12T09:50:43.582Z,61.67
2017-08-12T09:51:53.632Z,61.67
2017-08-12T09:53:03.992Z,61.87
2017-08-12T09:54:14.079Z,61.77
2017-08-12T09:55:24.448Z,61.47
2017-08-12T09:56:34.801Z,61.8
2017-08-12T09:57:44.841Z,61.57
2017-08-12T09:58:55.198Z,61.87
2017-08-12T10:00:05.287Z,61.57
2017-08-12T10:01:15.666Z,61.9
2017-08-12T10:02:26.022Z,61.77
2017-08-12T10:03:36.379Z,62.06
2017-08-12T10:04:46.429Z,62.26
2017-08-12T10:05:56.575Z,62.71
2017-08-12T10:07:06.951Z,61.87
2017-08-12T10:08:17.312Z,61.38
2017-08-12T10:09:27.676Z,61.02
2017-08-12T10:10:38.076Z,61.34
2017-08-12T10:11:48.183Z,60.88
2017-08-12T10:12:59.479Z,61.05
2017-08-12T10:14:09.842Z,61.27
2017-08-12T10:15:20.229Z,61.37
2017-08-12T10:16:30.599Z,61.27
2017-08-12T10:17:41.008Z,60.98
2017-08-12T10:18:52.326Z,60.88
2017-08-12T10:20:02.712Z,60.72
2017-08-12T10:21:12.757Z,60.82
2017-08-12T10:22:22.817Z,60.82
2017-08-12T10:23:33.232Z,60.91
2017-08-12T10:24:43.283Z,61.76
2017-08-12T10:25:53.008Z,60.98
2017-08-12T10:27:03.373Z,61.01
2017-08-12T10:28:13.748Z,61.21
2017-08-12T10:29:24.197Z,61.11
2017-08-12T10:30:34.559Z,61.37
2017-08-12T10:31:44.924Z,61.47
2017-08-12T10:32:55.275Z,61.57
2017-08-12T10:34:05.630Z,61.54
2017-08-12T10:35:16.034Z,61.63
2017-08-12T10:36:26.375Z,61.54
2017-08-12T10:37:36.114Z,61.44
2017-08-12T10:38:46.165Z,61.73
2017-08-12T10:39:56.532Z,61.15
2017-08-12T10:41:06.950Z,60.66
2017-08-12T10:42:17.018Z,61.05
2017-08-12T10:43:27.376Z,60.98
2017-08-12T10:44:37.420Z,61.08
2017-08-12T10:45:47.797Z,60.62
2017-08-12T10:46:58.210Z,61.11
2017-08-12T10:48:08.275Z,61.01
2017-08-12T10:49:18.630Z,61.6
2017-08-12T10:50:28.993Z,61.57
2017-08-12T10:51:39.356Z,61.63
2017-08-12T10:52:49.467Z,61.44
2017-08-12T10:53:59.839Z,61.8
2017-08-12T10:55:10.203Z,61.9
2017-08-12T10:56:20.570Z,61.7
2017-08-12T10:57:30.631Z,61.34
2017-08-12T10:58:40.710Z,60.75
2017-08-12T10:59:50.760Z,60.98
2017-08-12T11:01:01.128Z,61.11
2017-08-12T11:02:10.873Z,60.72
2017-08-12T11:03:21.243Z,60.65
2017-08-12T11:04:31.668Z,60.26
2017-08-12T11:05:41.726Z,59.97
2017-08-12T11:06:51.762Z,60.39
2017-08-12T11:08:01.806Z,60
2017-08-12T11:09:12.150Z,60.42
2017-08-12T11:10:22.252Z,60.32
2017-08-12T11:11:32.310Z,60.03
2017-08-12T11:12:42.360Z,60.13
2017-08-12T11:13:52.720Z,60.13
2017-08-12T11:15:03.107Z,60.03
2017-08-12T11:16:13.586Z,59.28
2017-08-12T11:17:23.652Z,60.25
2017-08-12T11:18:34.040Z,60.25
2017-08-12T11:19:44.408Z,60.25
2017-08-12T11:20:54.769Z,60.06
2017-08-12T11:22:05.196Z,60.42
2017-08-12T11:23:15.557Z,60.81
2017-08-12T11:24:25.620Z,60.71
2017-08-12T11:25:35.973Z,61.1
2017-08-12T11:26:46.349Z,61.07
2017-08-12T11:27:56.769Z,61.36
2017-08-12T11:29:06.503Z,60.78
2017-08-12T11:30:16.860Z,60.78
2017-08-12T11:31:27.219Z,60.88
2017-08-12T11:32:37.581Z,60.78
2017-08-12T11:33:47.992Z,60.78
2017-08-12T11:34:58.601Z,60.78
2017-08-12T11:36:08.675Z,60.88
2017-08-12T11:37:19.061Z,60.78
2017-08-12T11:38:29.416Z,60.58
2017-08-12T11:39:40.086Z,60.78
2017-08-12T11:40:50.448Z,60.58
2017-08-12T11:42:00.495Z,61.07
2017-08-12T11:43:10.851Z,61.43
2017-08-12T11:44:21.230Z,61.33
2017-08-12T11:45:31.632Z,61.04
2017-08-12T11:46:41.996Z,61.4
2017-08-12T11:47:52.053Z,60.85
2017-08-12T11:49:02.115Z,61.33
2017-08-12T11:50:12.177Z,60.85
2017-08-12T11:51:22.598Z,60.94
2017-08-12T11:52:32.967Z,60.46
2017-08-12T11:53:43.335Z,60.85
2017-08-12T11:54:53.693Z,60.94
2017-08-12T11:56:03.414Z,60.49
2017-08-12T11:57:13.829Z,60.1
2017-08-12T11:58:24.198Z,60
2017-08-12T11:59:34.584Z,60.03
2017-08-12T12:02:07.638Z,60.68
2017-08-12T12:03:18.047Z,60
2017-08-12T12:04:28.109Z,60.1
2017-08-12T12:05:38.472Z,60.32
2017-08-12T12:06:48.520Z,59.74
2017-08-12T12:07:58.924Z,59.47
2017-08-12T12:09:08.653Z,59.3
2017-08-12T12:10:19.034Z,59.2
2017-08-12T12:11:29.434Z,59.3
2017-08-12T12:12:39.831Z,59.89
2017-08-12T12:13:49.930Z,60.06
2017-08-12T12:15:00.276Z,60.45
2017-08-12T12:16:10.652Z,60.06
2017-08-12T12:17:21.015Z,60.32
2017-08-12T12:18:31.381Z,60.42
2017-08-12T12:19:41.485Z,60.78
2017-08-12T12:20:51.839Z,61.17
2017-08-12T12:22:01.894Z,61.36
2017-08-12T12:23:12.278Z,60.94
2017-08-12T12:24:22.663Z,60.75
2017-08-12T12:25:33.078Z,60.68
2017-08-12T12:26:43.455Z,60.88
2017-08-12T12:27:53.817Z,60.88
2017-08-12T12:29:03.856Z,60.97
2017-08-12T12:30:13.585Z,60.97
2017-08-12T12:31:23.999Z,60.29
2017-08-12T12:32:34.360Z,60.49
2017-08-12T12:33:44.718Z,60.39
2017-08-12T12:34:54.779Z,60.68
2017-08-12T12:36:05.121Z,60.1
2017-08-12T12:37:15.217Z,60.65
2017-08-12T12:38:25.296Z,61.04
2017-08-12T12:39:35.336Z,61.11
2017-08-12T12:40:45.698Z,61.01
2017-08-12T12:41:55.748Z,60.65
2017-08-12T12:43:05.851Z,61.3
2017-08-12T12:44:16.233Z,61.3
2017-08-12T12:45:26.605Z,61.01
2017-08-12T12:46:36.658Z,61.11
2017-08-12T12:47:46.721Z,61.01
2017-08-12T12:48:57.141Z,61.01
2017-08-12T12:50:07.498Z,60.69
2017-08-12T12:51:17.898Z,61.76
2017-08-12T12:52:28.296Z,60.88
2017-08-12T12:53:38.662Z,60.85
2017-08-12T12:54:48.762Z,60.95
2017-08-12T12:55:59.151Z,60.66
2017-08-12T12:57:09.224Z,61.34
2017-08-12T12:58:18.955Z,61.63
2017-08-12T12:59:29.512Z,61.24
2017-08-12T13:00:39.911Z,61.05
2017-08-12T13:01:49.990Z,61.34
2017-08-12T13:03:00.354Z,60.95
2017-08-12T13:04:10.739Z,60.85
2017-08-12T13:05:21.120Z,61.05
2017-08-12T13:06:31.513Z,61.54
2017-08-12T13:07:41.552Z,60.46
2017-08-12T13:08:51.946Z,60.95
2017-08-12T13:10:01.991Z,61.24
2017-08-12T13:11:12.369Z,61.24
2017-08-12T13:12:22.156Z,61.24
2017-08-12T13:13:32.525Z,61.44
2017-08-12T13:14:42.901Z,61.44
2017-08-12T13:15:53.270Z,61.05
2017-08-12T13:17:03.320Z,60.85
2017-08-12T13:18:13.717Z,61.18
2017-08-12T13:19:24.098Z,60.98
2017-08-12T13:20:34.455Z,61.08
2017-08-12T13:21:44.796Z,60.88
2017-08-12T13:22:54.549Z,60.78
2017-08-12T13:24:04.968Z,60.98
2017-08-12T13:25:15.350Z,60.98
2017-08-12T13:26:25.102Z,61.21
2017-08-12T13:27:35.466Z,61.3
2017-08-12T13:28:45.532Z,61.33
2017-08-12T13:29:55.628Z,60.72
2017-08-12T13:31:05.379Z,61.21
2017-08-12T13:32:15.751Z,60.72
2017-08-12T13:33:26.110Z,61.11
2017-08-12T13:34:36.476Z,60.91
2017-08-12T13:35:46.608Z,61.11
2017-08-12T13:36:56.641Z,61.11
2017-08-12T13:38:06.993Z,61.6
2017-08-12T13:39:17.054Z,61.57
2017-08-12T13:40:27.431Z,61.27
2017-08-12T13:41:37.516Z,61.66
2017-08-12T13:42:47.889Z,61.63
2017-08-12T13:43:58.255Z,61.63
2017-08-12T13:45:08.627Z,61.83
2017-08-12T13:46:18.673Z,61.57
2017-08-12T13:47:28.796Z,61.76
2017-08-12T13:48:39.156Z,61.73
2017-08-12T13:49:49.510Z,61.27
2017-08-12T13:50:59.556Z,61.54
2017-08-12T13:52:09.601Z,61.44
2017-08-12T13:53:20.027Z,61.73
2017-08-12T13:54:30.392Z,61.83
2017-08-12T13:55:40.755Z,61.93
2017-08-12T13:56:50.826Z,61.73
2017-08-12T13:58:01.181Z,61.24
2017-08-12T13:59:11.582Z,61.63
2017-08-12T14:00:21.634Z,61.54
2017-08-12T14:01:31.366Z,61.7
2017-08-12T14:02:41.724Z,61.44
2017-08-12T14:03:52.071Z,61.54
2017-08-12T14:05:02.185Z,61.47
2017-08-12T14:06:12.566Z,61.37
2017-08-12T14:07:22.944Z,61.37
2017-08-12T14:08:33.299Z,61.83
2017-08-12T14:09:43.025Z,61.44
2017-08-12T14:10:53.694Z,62.41
2017-08-12T14:12:04.056Z,61.9
2017-08-12T14:13:14.403Z,62.12
2017-08-12T14:14:24.749Z,61.6
2017-08-12T14:15:34.782Z,62.32
2017-08-12T14:16:45.200Z,62.87
2017-08-12T14:17:55.579Z,62.54
2017-08-12T14:19:05.641Z,61.57
2017-08-12T14:20:15.681Z,61.6
2017-08-12T14:21:26.057Z,61.24
2017-08-12T14:22:36.462Z,61.05
2017-08-12T14:23:46.829Z,61.24
2017-08-12T14:24:57.205Z,61.63
2017-08-12T14:26:07.587Z,61.21
2017-08-12T14:27:17.941Z,61.44
2017-08-12T14:28:28.035Z,61.63
2017-08-12T14:29:38.386Z,61.73
2017-08-12T14:30:48.460Z,61.63
2017-08-12T14:31:58.813Z,60.85
2017-08-12T14:33:09.191Z,60.98
2017-08-12T14:34:19.584Z,60.98
2017-08-12T14:35:29.941Z,61.37
2017-08-12T14:36:40.303Z,61.18
2017-08-12T14:37:50.663Z,61.66
2017-08-12T14:39:01.022Z,60.88
2017-08-12T14:40:11.435Z,61.66
2017-08-12T14:41:21.809Z,61.76
2017-08-12T14:42:32.206Z,62.8
2017-08-12T14:43:42.262Z,62.41
2017-08-12T14:44:52.627Z,61.51
2017-08-12T14:46:03.048Z,61.73
2017-08-12T14:47:13.430Z,61.15
2017-08-12T14:48:23.796Z,61.08
2017-08-12T14:49:33.846Z,61.08
2017-08-12T14:50:44.200Z,61.69
2017-08-12T14:51:54.597Z,61.3
2017-08-12T14:53:04.654Z,61.27
2017-08-12T14:54:14.999Z,61.66
2017-08-12T14:55:25.371Z,61.93
2017-08-12T14:56:35.740Z,61.96
2017-08-12T14:57:46.140Z,62.51
2017-08-12T14:58:56.513Z,62.19
2017-08-12T15:00:06.894Z,62.32
2017-08-12T15:01:17.242Z,62.38
2017-08-12T15:02:27.611Z,62.96
2017-08-12T15:03:37.724Z,62.87
2017-08-12T15:04:47.455Z,62.38
2017-08-12T15:05:57.536Z,63.16
2017-08-12T15:07:07.894Z,63.23
2017-08-12T15:08:17.953Z,62.93
2017-08-12T15:09:28.370Z,63.23
2017-08-12T15:10:38.105Z,62.9
2017-08-12T15:11:48.472Z,62.9
2017-08-12T15:12:58.834Z,63.13
2017-08-12T15:14:08.866Z,62.51
2017-08-12T15:15:19.290Z,61.96
2017-08-12T15:16:29.630Z,62.16
2017-08-12T15:17:39.992Z,61.7
2017-08-12T15:18:51.031Z,61.31
2017-08-12T15:20:01.067Z,61.7
2017-08-12T15:21:11.477Z,61.8
2017-08-12T15:22:21.844Z,62.29
2017-08-12T15:23:32.203Z,63.13
2017-08-12T15:24:42.254Z,62.16
2017-08-12T15:25:52.613Z,62.64
2017-08-12T15:27:03.040Z,63.03
2017-08-12T15:28:13.390Z,63
2017-08-12T15:29:23.433Z,62.61
2017-08-12T15:31:07.320Z,62.9
2017-08-12T15:32:17.724Z,63.07
2017-08-12T15:33:28.096Z,63.36
2017-08-12T15:34:38.154Z,64.01
2017-08-12T15:35:48.529Z,63.78
2017-08-12T15:36:58.910Z,64.17
2017-08-12T15:38:09.411Z,64.04
2017-08-12T15:39:19.781Z,63.88
2017-08-12T15:40:30.147Z,63.49